createdAt,value
2023-02-13T00:00:22.783Z,56
2023-02-13T00:01:29.662Z,59
2023-02-13T00:02:36.634Z,66
2023-02-13T00:03:44.288Z,61
2023-02-13T00:04:51.080Z,59
2023-02-13T00:05:58.829Z,60
2023-02-13T00:07:05.691Z,61
2023-02-13T00:08:12.566Z,57
2023-02-13T00:09:19.502Z,58
2023-02-13T00:10:26.403Z,55
2023-02-13T00:11:39.325Z,73
2023-02-13T00:12:40.189Z,67
2023-02-13T00:13:48.163Z,66
2023-02-13T00:14:55.207Z,68
2023-02-13T00:16:02.127Z,68
2023-02-13T00:17:09.828Z,70
2023-02-13T00:18:16.611Z,71
2023-02-13T00:19:23.542Z,69
2023-02-13T00:20:30.564Z,62
2023-02-13T00:21:38.386Z,74
2023-02-13T00:22:45.293Z,73
2023-02-13T00:23:52.112Z,64
2023-02-13T00:25:00.140Z,63
2023-02-13T00:26:07.087Z,63
2023-02-13T00:27:14.029Z,63
2023-02-13T00:28:21.014Z,69
2023-02-13T00:29:27.858Z,60
2023-02-13T00:30:35.609Z,58
2023-02-13T00:31:42.651Z,53
2023-02-13T00:32:50.380Z,50
2023-02-13T00:33:57.140Z,49
2023-02-13T00:35:04.194Z,51
2023-02-13T00:36:11.117Z,45
2023-02-13T00:37:23.927Z,41
2023-02-13T00:38:30.782Z,46
2023-02-13T00:39:37.600Z,47
2023-02-13T00:40:44.473Z,42
2023-02-13T00:41:51.562Z,38
2023-02-13T00:42:58.488Z,36
2023-02-13T00:44:06.057Z,43
2023-02-13T00:45:12.910Z,36
2023-02-13T00:46:20.662Z,36
2023-02-13T00:47:27.460Z,40
2023-02-13T00:48:34.688Z,35
2023-02-13T00:49:41.633Z,41
2023-02-13T00:50:48.591Z,36
2023-02-13T00:51:58.350Z,32
2023-02-13T00:53:05.140Z,37
2023-02-13T00:54:12.076Z,39
2023-02-13T00:55:18.956Z,31
2023-02-13T00:56:25.990Z,37
2023-02-13T00:57:32.935Z,39
2023-02-13T00:58:39.940Z,39
2023-02-13T00:59:46.680Z,45
2023-02-13T01:00:53.562Z,43
2023-02-13T01:02:00.527Z,43
2023-02-13T01:03:07.519Z,52
2023-02-13T01:04:14.398Z,51
2023-02-13T01:05:21.329Z,59
2023-02-13T01:06:28.117Z,57
2023-02-13T01:07:35.025Z,62
2023-02-13T01:08:42.726Z,69
2023-02-13T01:09:49.682Z,59
2023-02-13T01:10:56.896Z,69
2023-02-13T01:12:03.427Z,73
2023-02-13T01:13:10.376Z,69
2023-02-13T01:14:17.384Z,69
2023-02-13T01:15:25.091Z,73
2023-02-13T01:16:31.902Z,71
2023-02-13T01:17:38.676Z,71
2023-02-13T01:18:45.489Z,72
2023-02-13T01:19:52.401Z,62
2023-02-13T01:20:59.870Z,75
2023-02-13T01:22:06.280Z,70
2023-02-13T01:23:13.146Z,71
2023-02-13T01:24:20.098Z,72
2023-02-13T01:25:27.084Z,68
2023-02-13T01:26:33.988Z,78
2023-02-13T01:27:40.987Z,74
2023-02-13T01:28:47.813Z,69
2023-02-13T01:29:57.734Z,62
2023-02-13T01:31:04.827Z,74
2023-02-13T01:32:12.363Z,64
2023-02-13T01:33:19.322Z,69
2023-02-13T01:34:28.702Z,67
2023-02-13T01:35:36.601Z,62
2023-02-13T01:36:43.485Z,61
2023-02-13T01:37:50.349Z,63
2023-02-13T01:38:57.171Z,60
2023-02-13T01:40:04.032Z,61
2023-02-13T01:41:11.394Z,60
2023-02-13T01:42:18.373Z,62
2023-02-13T01:43:25.231Z,61
2023-02-13T01:44:42.153Z,62
2023-02-13T01:45:48.998Z,63
2023-02-13T01:46:56.020Z,63
2023-02-13T01:48:05.693Z,66
2023-02-13T01:49:10.572Z,60
2023-02-13T01:50:17.495Z,68
2023-02-13T01:51:29.455Z,67
2023-02-13T01:52:37.256Z,71
2023-02-13T01:53:44.128Z,66
2023-02-13T01:54:57.059Z,69
2023-02-13T01:56:04.759Z,62
2023-02-13T01:57:19.530Z,63
2023-02-13T01:58:26.377Z,64
2023-02-13T01:59:33.247Z,67
2023-02-13T02:00:45.706Z,70
2023-02-13T02:01:55.282Z,67
2023-02-13T02:03:02.074Z,62
2023-02-13T02:04:08.944Z,64
2023-02-13T02:05:20.906Z,68
2023-02-13T02:06:28.615Z,65
2023-02-13T02:07:38.558Z,67
2023-02-13T02:08:45.411Z,65
2023-02-13T02:09:52.430Z,63
2023-02-13T02:10:59.320Z,60
2023-02-13T02:12:06.132Z,66
2023-02-13T02:13:18.829Z,59
2023-02-13T02:14:25.724Z,56
2023-02-13T02:15:32.654Z,54
2023-02-13T02:16:39.596Z,49
2023-02-13T02:17:46.466Z,60
2023-02-13T02:18:54.384Z,54
2023-02-13T02:20:01.257Z,59
2023-02-13T02:21:18.178Z,51
2023-02-13T02:22:30.836Z,47
2023-02-13T02:23:37.752Z,49
2023-02-13T02:24:54.779Z,45
2023-02-13T02:26:11.704Z,54
2023-02-13T02:27:26.368Z,54
2023-02-13T02:28:39.521Z,57
2023-02-13T02:29:57.208Z,49
2023-02-13T02:31:14.358Z,49
2023-02-13T02:32:24.013Z,51
2023-02-13T02:33:35.918Z,48
2023-02-13T02:34:45.633Z,49
2023-02-13T02:36:02.710Z,44
2023-02-13T02:37:15.526Z,42
2023-02-13T02:38:28.615Z,38
2023-02-13T02:39:45.682Z,36
2023-02-13T02:40:58.184Z,34
2023-02-13T02:42:12.610Z,37
2023-02-13T02:43:29.870Z,29
2023-02-13T02:44:44.514Z,26
2023-02-13T02:45:55.108Z,26
2023-02-13T02:47:07.328Z,31
2023-02-13T02:48:24.255Z,33
2023-02-13T02:49:36.214Z,27
2023-02-13T02:50:48.146Z,25
2023-02-13T02:52:05.178Z,29
2023-02-13T02:53:12.025Z,25
2023-02-13T02:54:28.981Z,26
2023-02-13T02:55:46.992Z,31
2023-02-13T02:56:54.328Z,27
2023-02-13T02:58:01.148Z,37
2023-02-13T02:59:20.621Z,26
2023-02-13T03:00:32.838Z,32
2023-02-13T03:01:44.715Z,28
2023-02-13T03:02:56.795Z,31
2023-02-13T03:04:08.768Z,25
2023-02-13T03:05:26.321Z,36
2023-02-13T03:06:38.331Z,30
2023-02-13T03:07:53.168Z,25
2023-02-13T03:09:00.028Z,32
2023-02-13T03:10:11.972Z,32
2023-02-13T03:11:26.793Z,37
2023-02-13T03:12:38.755Z,28
2023-02-13T03:13:51.597Z,33
2023-02-13T03:14:59.450Z,34
2023-02-13T03:16:06.345Z,26
2023-02-13T03:17:18.118Z,32
2023-02-13T03:18:30.134Z,26
2023-02-13T03:19:45.039Z,25
2023-02-13T03:21:04.782Z,28
2023-02-13T03:22:19.683Z,32
2023-02-13T03:23:34.495Z,32
2023-02-13T03:24:47.307Z,33
2023-02-13T03:26:03.175Z,26
2023-02-13T03:27:17.914Z,32
2023-02-13T03:28:28.101Z,26
2023-02-13T03:29:48.070Z,30
2023-02-13T03:31:00.771Z,25
2023-02-13T03:32:12.010Z,25
2023-02-13T03:33:21.706Z,33
2023-02-13T03:34:33.518Z,34
2023-02-13T03:35:45.455Z,32
2023-02-13T03:37:02.559Z,28
2023-02-13T03:38:14.477Z,28
2023-02-13T03:39:25.937Z,32
2023-02-13T03:40:43.079Z,28
2023-02-13T03:41:55.296Z,25
2023-02-13T03:43:05.699Z,33
2023-02-13T03:44:12.747Z,25
2023-02-13T03:45:19.660Z,35
2023-02-13T03:46:31.910Z,30
2023-02-13T03:47:38.928Z,32
2023-02-13T03:48:45.771Z,25
2023-02-13T03:49:57.786Z,35
2023-02-13T03:51:10.310Z,25
2023-02-13T03:52:17.210Z,28
2023-02-13T03:53:24.080Z,25
2023-02-13T03:54:30.942Z,28
2023-02-13T03:55:45.587Z,25
2023-02-13T03:56:58.362Z,28
2023-02-13T03:58:10.293Z,31
2023-02-13T03:59:25.120Z,27
2023-02-13T04:00:34.669Z,25
2023-02-13T04:01:44.230Z,28
2023-02-13T04:02:53.957Z,35
2023-02-13T04:04:00.809Z,32
2023-02-13T04:05:14.665Z,45
2023-02-13T04:06:19.569Z,38
2023-02-13T04:07:26.454Z,40
2023-02-13T04:08:33.422Z,40
2023-02-13T04:09:40.363Z,31
2023-02-13T04:10:47.300Z,34
2023-02-13T04:11:56.924Z,31
2023-02-13T04:13:08.936Z,34
2023-02-13T04:14:15.776Z,27
2023-02-13T04:15:24.453Z,25
2023-02-13T04:16:34.586Z,31
2023-02-13T04:17:44.138Z,30
2023-02-13T04:18:54.004Z,31
2023-02-13T04:20:00.899Z,34
2023-02-13T04:21:08.053Z,36
2023-02-13T04:22:14.844Z,33
2023-02-13T04:23:21.829Z,35
2023-02-13T04:24:28.692Z,37
2023-02-13T04:25:35.552Z,30
2023-02-13T04:26:42.454Z,35
2023-02-13T04:27:49.377Z,33
2023-02-13T04:28:57.012Z,30
2023-02-13T04:30:03.870Z,37
2023-02-13T04:31:11.125Z,34
2023-02-13T04:32:18.761Z,37
2023-02-13T04:33:25.682Z,39
2023-02-13T04:34:33.342Z,33
2023-02-13T04:35:40.290Z,33
2023-02-13T04:36:47.200Z,39
2023-02-13T04:37:53.996Z,35
2023-02-13T04:39:00.890Z,43
2023-02-13T04:40:07.792Z,47
2023-02-13T04:41:15.075Z,43
2023-02-13T04:42:21.952Z,44
2023-02-13T04:43:28.789Z,49
2023-02-13T04:44:35.689Z,45
2023-02-13T04:45:42.667Z,41
2023-02-13T04:46:52.258Z,48
2023-02-13T04:47:59.081Z,48
2023-02-13T04:49:06.027Z,51
2023-02-13T04:50:14.571Z,51
2023-02-13T04:51:21.520Z,49
2023-02-13T04:52:28.373Z,48
2023-02-13T04:53:35.265Z,44
2023-02-13T04:54:43.044Z,44
2023-02-13T04:55:50.115Z,43
2023-02-13T04:56:57.164Z,48
2023-02-13T04:58:03.992Z,44
2023-02-13T04:59:11.039Z,44
2023-02-13T05:00:18.216Z,47
2023-02-13T05:01:25.248Z,41
2023-02-13T05:02:32.373Z,43
2023-02-13T05:03:39.270Z,51
2023-02-13T05:04:46.257Z,36
2023-02-13T05:05:53.315Z,41
2023-02-13T05:07:00.157Z,48
2023-02-13T05:08:07.091Z,46
2023-02-13T05:09:13.852Z,51
2023-02-13T05:10:20.772Z,48
2023-02-13T05:11:28.571Z,43
2023-02-13T05:12:35.455Z,49
2023-02-13T05:13:42.313Z,55
2023-02-13T05:14:49.367Z,54
2023-02-13T05:15:56.515Z,52
2023-02-13T05:17:03.376Z,59
2023-02-13T05:18:11.464Z,55
2023-02-13T05:19:18.311Z,56
2023-02-13T05:20:25.292Z,65
2023-02-13T05:21:32.283Z,58
2023-02-13T05:22:44.232Z,67
2023-02-13T05:23:56.112Z,64
2023-02-13T05:25:03.059Z,68
2023-02-13T05:26:10.103Z,66
2023-02-13T05:27:17.052Z,76
2023-02-13T05:28:24.011Z,90
2023-02-13T05:29:35.843Z,91
2023-02-13T05:30:42.780Z,95
2023-02-13T05:31:50.594Z,97
2023-02-13T05:32:57.327Z,103
2023-02-13T05:34:04.331Z,97
2023-02-13T05:35:11.264Z,101
2023-02-13T05:36:18.197Z,106
2023-02-13T05:37:25.115Z,109
2023-02-13T05:38:32.858Z,116
2023-02-13T05:39:39.748Z,114
2023-02-13T05:40:46.691Z,125
2023-02-13T05:41:53.546Z,121
2023-02-13T05:43:01.204Z,124
2023-02-13T05:44:08.126Z,121
2023-02-13T05:45:15.015Z,125
2023-02-13T05:46:22.061Z,118
2023-02-13T05:47:28.846Z,121
2023-02-13T05:48:35.723Z,123
2023-02-13T05:49:42.649Z,128
2023-02-13T05:50:49.530Z,121
2023-02-13T05:51:56.422Z,114
2023-02-13T05:53:03.347Z,126
2023-02-13T05:54:10.263Z,118
2023-02-13T05:55:17.274Z,103
2023-02-13T05:56:24.158Z,115
2023-02-13T05:57:31.395Z,103
2023-02-13T05:58:37.935Z,102
2023-02-13T05:59:44.837Z,97
2023-02-13T06:00:51.715Z,92
2023-02-13T06:02:05.201Z,88
2023-02-13T06:03:12.074Z,93
2023-02-13T06:04:19.929Z,94
2023-02-13T06:05:26.781Z,95
2023-02-13T06:06:33.737Z,95
2023-02-13T06:07:40.705Z,96
2023-02-13T06:08:48.601Z,99
2023-02-13T06:09:55.457Z,94
2023-02-13T06:11:02.630Z,95
2023-02-13T06:12:09.353Z,94
2023-02-13T06:13:16.285Z,95
2023-02-13T06:14:23.244Z,91
2023-02-13T06:15:30.304Z,88
2023-02-13T06:16:37.161Z,83
2023-02-13T06:17:44.033Z,74
2023-02-13T06:18:50.952Z,80
2023-02-13T06:19:57.893Z,66
2023-02-13T06:21:04.748Z,74
2023-02-13T06:22:11.604Z,94
2023-02-13T06:23:18.388Z,92
2023-02-13T06:24:27.269Z,80
2023-02-13T06:25:34.140Z,77
2023-02-13T06:26:41.072Z,79
2023-02-13T06:27:47.924Z,75
2023-02-13T06:28:54.819Z,75
2023-02-13T06:30:01.932Z,85
2023-02-13T06:31:10.729Z,72
2023-02-13T06:32:17.406Z,70
2023-02-13T06:33:24.424Z,70
2023-02-13T06:34:31.437Z,73
2023-02-13T06:35:38.367Z,73
2023-02-13T06:36:45.188Z,78
2023-02-13T06:37:52.167Z,69
2023-02-13T06:38:59.034Z,75
2023-02-13T06:40:06.821Z,71
2023-02-13T06:41:14.862Z,73
2023-02-13T06:42:21.698Z,69
2023-02-13T06:43:29.395Z,63
2023-02-13T06:44:36.271Z,64
2023-02-13T06:45:41.248Z,64
2023-02-13T06:46:48.314Z,66
2023-02-13T06:47:57.138Z,62
2023-02-13T06:49:04.010Z,64
2023-02-13T06:50:11.634Z,63
2023-02-13T06:51:18.453Z,65
2023-02-13T06:52:25.422Z,67
2023-02-13T06:53:32.225Z,62
2023-02-13T06:54:47.088Z,57
2023-02-13T06:55:58.627Z,61
2023-02-13T06:56:56.444Z,56
2023-02-13T06:58:03.361Z,58
2023-02-13T06:59:10.314Z,52
2023-02-13T07:00:17.937Z,51
2023-02-13T07:01:25.047Z,49
2023-02-13T07:02:31.830Z,61
2023-02-13T07:03:38.727Z,51
2023-02-13T07:04:45.584Z,57
2023-02-13T07:05:52.551Z,51
2023-02-13T07:06:59.434Z,51
2023-02-13T07:08:07.100Z,53
2023-02-13T07:09:14.829Z,41
2023-02-13T07:10:21.665Z,48
2023-02-13T07:11:28.505Z,47
2023-02-13T07:12:35.418Z,45
2023-02-13T07:13:43.134Z,43
2023-02-13T07:14:51.482Z,35
2023-02-13T07:15:58.334Z,40
2023-02-13T07:17:05.171Z,47
2023-02-13T07:18:11.998Z,43
2023-02-13T07:19:18.857Z,49
2023-02-13T07:20:25.762Z,54
2023-02-13T07:21:32.689Z,50
2023-02-13T07:22:39.495Z,42
2023-02-13T07:23:46.401Z,48
2023-02-13T07:24:53.327Z,51
2023-02-13T07:26:00.345Z,49
2023-02-13T07:27:07.277Z,53
2023-02-13T07:28:14.244Z,54
2023-02-13T07:29:21.061Z,50
2023-02-13T07:30:28.100Z,47
2023-02-13T07:31:34.974Z,52
2023-02-13T07:32:41.840Z,53
2023-02-13T07:33:48.720Z,45
2023-02-13T07:35:01.904Z,50
2023-02-13T07:36:02.420Z,45
2023-02-13T07:37:09.525Z,46
2023-02-13T07:38:16.378Z,41
2023-02-13T07:39:27.290Z,43
2023-02-13T07:40:34.200Z,47
2023-02-13T07:41:41.034Z,47
2023-02-13T07:42:48.636Z,53
2023-02-13T07:43:55.787Z,52
2023-02-13T07:45:02.617Z,49
2023-02-13T07:46:09.563Z,60
2023-02-13T07:47:20.051Z,59
2023-02-13T07:48:25.045Z,54
2023-02-13T07:49:31.835Z,57
2023-02-13T07:50:38.790Z,63
2023-02-13T07:51:45.771Z,62
2023-02-13T07:52:52.599Z,66
2023-02-13T07:53:59.503Z,67
2023-02-13T07:55:06.337Z,70
2023-02-13T07:56:13.457Z,74
2023-02-13T07:57:20.311Z,73
2023-02-13T07:58:27.907Z,71
2023-02-13T07:59:34.779Z,70
2023-02-13T08:00:41.610Z,68
2023-02-13T08:01:48.535Z,64
2023-02-13T08:02:56.128Z,69
2023-02-13T08:04:03.181Z,76
2023-02-13T08:05:09.978Z,76
2023-02-13T08:06:16.815Z,79
2023-02-13T08:07:23.650Z,81
2023-02-13T08:08:30.635Z,77
2023-02-13T08:09:39.509Z,75
2023-02-13T08:10:49.565Z,77
2023-02-13T08:12:01.619Z,85
2023-02-13T08:13:08.782Z,86
2023-02-13T08:14:15.695Z,91
2023-02-13T08:15:22.531Z,92
2023-02-13T08:16:29.386Z,96
2023-02-13T08:17:36.221Z,95
2023-02-13T08:18:44.752Z,94
2023-02-13T08:19:51.748Z,97
2023-02-13T08:20:58.523Z,96
2023-02-13T08:22:05.317Z,92
2023-02-13T08:23:12.256Z,97
2023-02-13T08:24:19.177Z,101
2023-02-13T08:25:26.455Z,95
2023-02-13T08:26:33.392Z,97
2023-02-13T08:27:41.282Z,102
2023-02-13T08:28:48.103Z,109
2023-02-13T08:29:55.003Z,97
2023-02-13T08:31:02.065Z,106
2023-02-13T08:32:08.994Z,117
2023-02-13T08:33:15.766Z,112
2023-02-13T08:34:22.685Z,112
2023-02-13T08:35:29.727Z,109
2023-02-13T08:36:36.626Z,112
2023-02-13T08:37:43.930Z,100
2023-02-13T08:38:50.413Z,103
2023-02-13T08:39:57.265Z,98
2023-02-13T08:41:04.137Z,101
2023-02-13T08:42:13.907Z,93
2023-02-13T08:43:17.883Z,99
2023-02-13T08:44:24.685Z,107
2023-02-13T08:45:31.629Z,98
2023-02-13T08:46:38.554Z,106
2023-02-13T08:47:45.455Z,107
2023-02-13T08:48:52.256Z,109
2023-02-13T08:49:59.087Z,111
2023-02-13T08:51:05.954Z,116
2023-02-13T08:52:15.583Z,101
2023-02-13T08:53:22.542Z,111
2023-02-13T08:54:29.484Z,106
2023-02-13T08:55:36.354Z,102
2023-02-13T08:56:43.129Z,102
2023-02-13T08:57:50.107Z,108
2023-02-13T08:58:56.990Z,108
2023-02-13T09:00:04.162Z,104
2023-02-13T09:01:11.348Z,105
2023-02-13T09:02:19.165Z,111
2023-02-13T09:03:26.110Z,110
2023-02-13T09:04:33.021Z,113
2023-02-13T09:05:40.795Z,102
2023-02-13T09:06:47.761Z,104
2023-02-13T09:07:54.582Z,101
2023-02-13T09:09:04.063Z,100
2023-02-13T09:10:10.883Z,114
2023-02-13T09:11:17.739Z,107
2023-02-13T09:12:25.367Z,111
2023-02-13T09:13:32.248Z,109
2023-02-13T09:14:39.150Z,110
2023-02-13T09:15:46.016Z,119
2023-02-13T09:16:52.867Z,111
2023-02-13T09:17:59.777Z,112
2023-02-13T09:19:06.745Z,120
2023-02-13T09:20:13.588Z,122
2023-02-13T09:21:20.566Z,121
2023-02-13T09:22:27.465Z,117
2023-02-13T09:23:34.659Z,114
2023-02-13T09:24:41.617Z,103
2023-02-13T09:25:48.506Z,107
2023-02-13T09:26:55.278Z,106
2023-02-13T09:28:02.155Z,108
2023-02-13T09:29:08.988Z,107
2023-02-13T09:30:15.813Z,99
2023-02-13T09:31:27.804Z,103
2023-02-13T09:32:32.486Z,104
2023-02-13T09:33:39.601Z,98
2023-02-13T09:34:46.515Z,101
2023-02-13T09:35:53.457Z,103
2023-02-13T09:37:00.397Z,101
2023-02-13T09:38:07.294Z,101
2023-02-13T09:39:14.110Z,102
2023-02-13T09:40:21.182Z,99
2023-02-13T09:41:28.164Z,87
2023-02-13T09:42:35.874Z,88
2023-02-13T09:43:42.722Z,94
2023-02-13T09:44:54.727Z,83
2023-02-13T09:46:04.667Z,91
2023-02-13T09:47:11.500Z,86
2023-02-13T09:48:26.145Z,78
2023-02-13T09:49:33.019Z,78
2023-02-13T09:50:39.867Z,78
2023-02-13T09:51:46.823Z,85
2023-02-13T09:52:53.733Z,83
2023-02-13T09:54:00.712Z,82
2023-02-13T09:55:10.409Z,82
2023-02-13T09:56:17.348Z,90
2023-02-13T09:57:26.857Z,85
2023-02-13T09:58:38.829Z,79
2023-02-13T09:59:48.564Z,81
2023-02-13T10:01:00.505Z,79
2023-02-13T10:02:07.466Z,74
2023-02-13T10:03:22.520Z,71
2023-02-13T10:04:34.518Z,67
2023-02-13T10:05:51.530Z,70
2023-02-13T10:07:03.351Z,75
2023-02-13T10:08:10.371Z,66
2023-02-13T10:09:27.376Z,68
2023-02-13T10:10:36.959Z,66
2023-02-13T10:11:47.628Z,74
2023-02-13T10:13:02.541Z,64
2023-02-13T10:14:11.997Z,65
2023-02-13T10:15:18.835Z,71
2023-02-13T10:16:35.780Z,65
2023-02-13T10:17:45.354Z,55
2023-02-13T10:18:52.145Z,52
2023-02-13T10:20:06.840Z,57
2023-02-13T10:21:23.815Z,57
2023-02-13T10:22:30.685Z,58
2023-02-13T10:23:37.439Z,51
2023-02-13T10:24:49.508Z,54
2023-02-13T10:26:01.597Z,43
2023-02-13T10:27:08.424Z,41
2023-02-13T10:28:23.141Z,43
2023-02-13T10:29:40.175Z,42
2023-02-13T10:30:52.218Z,46
2023-02-13T10:31:59.066Z,37
2023-02-13T10:33:05.717Z,41
2023-02-13T10:34:17.573Z,36
2023-02-13T10:35:24.416Z,34
2023-02-13T10:36:31.324Z,38
2023-02-13T10:37:39.015Z,43
2023-02-13T10:38:45.973Z,45
2023-02-13T10:40:00.480Z,43
2023-02-13T10:41:07.368Z,40
2023-02-13T10:42:24.336Z,41
2023-02-13T10:43:38.997Z,56
2023-02-13T10:44:56.052Z,51
2023-02-13T10:46:07.954Z,48
2023-02-13T10:47:22.957Z,52
2023-02-13T10:48:34.940Z,51
2023-02-13T10:49:49.809Z,45
2023-02-13T10:51:01.853Z,47
2023-02-13T10:52:18.832Z,44
2023-02-13T10:53:30.730Z,42
2023-02-13T10:54:42.556Z,45
2023-02-13T10:55:59.879Z,45
2023-02-13T10:57:15.180Z,47
2023-02-13T10:58:24.887Z,44
2023-02-13T10:59:36.975Z,52
2023-02-13T11:00:48.070Z,49
2023-02-13T11:02:02.184Z,53
2023-02-13T11:03:14.054Z,53
2023-02-13T11:04:23.937Z,50
2023-02-13T11:05:31.582Z,58
2023-02-13T11:06:42.158Z,54
2023-02-13T11:07:54.124Z,51
2023-02-13T11:09:00.943Z,60
2023-02-13T11:10:07.791Z,55
2023-02-13T11:11:19.644Z,61
2023-02-13T11:12:31.577Z,53
2023-02-13T11:13:38.426Z,38
2023-02-13T11:14:45.338Z,40
2023-02-13T11:15:57.622Z,49
2023-02-13T11:17:10.150Z,32
2023-02-13T11:18:18.570Z,49
2023-02-13T11:19:23.941Z,53
2023-02-13T11:20:33.582Z,57
2023-02-13T11:21:40.392Z,44
2023-02-13T11:22:47.304Z,45
2023-02-13T11:23:54.950Z,46
2023-02-13T11:25:01.803Z,49
2023-02-13T11:26:16.342Z,44
2023-02-13T11:27:31.052Z,42
2023-02-13T11:28:37.953Z,45
2023-02-13T11:29:49.875Z,32
2023-02-13T11:30:59.923Z,33
2023-02-13T11:32:06.778Z,43
2023-02-13T11:33:18.607Z,38
2023-02-13T11:34:28.506Z,39
2023-02-13T11:35:35.345Z,41
2023-02-13T11:36:42.253Z,36
2023-02-13T11:37:50.192Z,52
2023-02-13T11:39:07.129Z,46
2023-02-13T11:40:18.952Z,45
2023-02-13T11:41:25.908Z,40
2023-02-13T11:42:32.887Z,53
2023-02-13T11:43:39.756Z,46
2023-02-13T11:44:52.329Z,53
2023-02-13T11:45:59.496Z,45
2023-02-13T11:47:11.612Z,55
2023-02-13T11:48:18.496Z,35
2023-02-13T11:49:25.360Z,54
2023-02-13T11:50:35.098Z,53
2023-02-13T11:51:42.024Z,51
2023-02-13T11:52:56.899Z,51
2023-02-13T11:54:06.763Z,62
2023-02-13T11:55:23.814Z,59
2023-02-13T11:56:33.822Z,57
2023-02-13T11:57:50.871Z,66
2023-02-13T11:59:03.039Z,60
2023-02-13T12:00:09.736Z,63
2023-02-13T12:01:27.699Z,67
2023-02-13T12:02:34.650Z,66
2023-02-13T12:03:49.167Z,69
2023-02-13T12:05:03.080Z,67
2023-02-13T12:06:15.042Z,68
2023-02-13T12:07:21.920Z,74
2023-02-13T12:08:31.621Z,74
2023-02-13T12:09:38.480Z,75
2023-02-13T12:10:45.350Z,75
2023-02-13T12:11:52.360Z,75
2023-02-13T12:12:59.193Z,73
2023-02-13T12:14:05.972Z,83
2023-02-13T12:15:15.850Z,81
2023-02-13T12:16:28.709Z,82
2023-02-13T12:17:35.548Z,85
2023-02-13T12:18:42.362Z,88
2023-02-13T12:19:50.149Z,82
2023-02-13T12:20:57.333Z,82
2023-02-13T12:22:07.046Z,82
2023-02-13T12:23:16.930Z,83
2023-02-13T12:24:23.908Z,86
2023-02-13T12:25:35.918Z,79
2023-02-13T12:26:50.740Z,84
2023-02-13T12:28:02.669Z,78
2023-02-13T12:29:14.546Z,86
2023-02-13T12:30:29.253Z,85
2023-02-13T12:31:44.066Z,84
2023-02-13T12:32:56.793Z,87
2023-02-13T12:34:11.594Z,92
2023-02-13T12:35:18.496Z,87
2023-02-13T12:36:31.344Z,87
2023-02-13T12:37:38.224Z,85
2023-02-13T12:38:50.144Z,85
2023-02-13T12:39:57.029Z,86
2023-02-13T12:41:11.613Z,89
2023-02-13T12:42:23.520Z,95
2023-02-13T12:43:33.304Z,96
2023-02-13T12:44:45.224Z,89
2023-02-13T12:45:57.258Z,92
2023-02-13T12:47:11.772Z,91
2023-02-13T12:48:21.634Z,90
2023-02-13T12:49:38.626Z,98
2023-02-13T12:50:53.327Z,93
2023-02-13T12:52:05.292Z,95
2023-02-13T12:53:22.199Z,94
2023-02-13T12:54:41.050Z,96
2023-02-13T12:55:58.067Z,99
2023-02-13T12:57:11.074Z,94
2023-02-13T12:58:21.041Z,95
2023-02-13T12:59:33.009Z,97
2023-02-13T13:00:47.660Z,93
2023-02-13T13:02:04.702Z,100
2023-02-13T13:03:17.168Z,104
2023-02-13T13:04:27.072Z,104
2023-02-13T13:05:45.201Z,98
2023-02-13T13:06:56.332Z,96
2023-02-13T13:08:03.195Z,95
2023-02-13T13:09:17.847Z,94
2023-02-13T13:10:34.969Z,99
2023-02-13T13:11:49.841Z,98
2023-02-13T13:13:02.529Z,92
2023-02-13T13:14:16.362Z,91
2023-02-13T13:15:24.717Z,91
2023-02-13T13:16:38.638Z,92
2023-02-13T13:17:51.363Z,101
2023-02-13T13:19:08.389Z,95
2023-02-13T13:20:25.385Z,99
2023-02-13T13:21:43.753Z,95
2023-02-13T13:22:57.957Z,88
2023-02-13T13:24:15.753Z,100
2023-02-13T13:25:32.822Z,102
2023-02-13T13:26:39.686Z,98
2023-02-13T13:27:46.694Z,100
2023-02-13T13:28:53.551Z,97
2023-02-13T13:30:00.428Z,98
2023-02-13T13:31:17.495Z,92
2023-02-13T13:32:24.229Z,95
2023-02-13T13:33:31.113Z,95
2023-02-13T13:34:37.926Z,98
2023-02-13T13:35:44.758Z,90
2023-02-13T13:37:00.453Z,96
2023-02-13T13:38:08.138Z,93
2023-02-13T13:39:20.641Z,92
2023-02-13T13:40:38.529Z,92
2023-02-13T13:41:45.389Z,90
2023-02-13T13:42:54.996Z,89
2023-02-13T13:44:06.976Z,74
2023-02-13T13:45:18.870Z,92
2023-02-13T13:46:31.448Z,92
2023-02-13T13:47:41.133Z,91
2023-02-13T13:48:55.943Z,92
2023-02-13T13:50:12.877Z,91
2023-02-13T13:51:24.836Z,82
2023-02-13T13:52:33.329Z,89
2023-02-13T13:53:42.736Z,89
2023-02-13T13:54:59.711Z,76
2023-02-13T13:56:07.436Z,91
2023-02-13T13:57:14.444Z,81
2023-02-13T13:58:25.323Z,74
2023-02-13T13:59:39.994Z,91
2023-02-13T14:00:49.675Z,75
2023-02-13T14:02:06.784Z,97
2023-02-13T14:03:21.609Z,98
2023-02-13T14:04:28.569Z,97
2023-02-13T14:05:35.524Z,98
2023-02-13T14:06:52.482Z,95
2023-02-13T14:08:02.129Z,101
2023-02-13T14:09:11.454Z,86
2023-02-13T14:10:28.524Z,101
2023-02-13T14:11:36.209Z,112
2023-02-13T14:12:43.109Z,120
2023-02-13T14:13:52.528Z,112
2023-02-13T14:14:59.362Z,123
2023-02-13T14:16:06.549Z,114
2023-02-13T14:17:13.419Z,124
2023-02-13T14:18:20.290Z,123
2023-02-13T14:19:27.997Z,127
2023-02-13T14:20:39.934Z,122
2023-02-13T14:21:51.874Z,126
2023-02-13T14:22:59.469Z,117
2023-02-13T14:24:14.032Z,120
2023-02-13T14:25:21.009Z,99
2023-02-13T14:26:27.941Z,116
2023-02-13T14:27:37.520Z,98
2023-02-13T14:28:44.273Z,111
2023-02-13T14:29:53.992Z,117
2023-02-13T14:31:01.212Z,121
2023-02-13T14:32:08.069Z,115
2023-02-13T14:33:20.092Z,115
2023-02-13T14:34:28.034Z,114
2023-02-13T14:35:35.781Z,112
2023-02-13T14:36:46.552Z,115
2023-02-13T14:37:53.521Z,108
2023-02-13T14:39:03.350Z,119
2023-02-13T14:40:15.309Z,114
2023-02-13T14:41:22.264Z,114
2023-02-13T14:42:39.301Z,113
2023-02-13T14:43:49.611Z,113
2023-02-13T14:44:56.419Z,111
2023-02-13T14:46:03.472Z,105
2023-02-13T14:47:13.126Z,104
2023-02-13T14:48:25.046Z,99
2023-02-13T14:49:36.868Z,97
2023-02-13T14:50:43.776Z,99
2023-02-13T14:51:50.872Z,95
2023-02-13T14:52:59.360Z,91
2023-02-13T14:54:06.405Z,92
2023-02-13T14:55:13.750Z,93
2023-02-13T14:56:25.353Z,95
2023-02-13T14:57:33.189Z,95
2023-02-13T14:58:40.043Z,95
2023-02-13T14:59:46.932Z,98
2023-02-13T15:00:53.920Z,99
2023-02-13T15:02:06.578Z,96
2023-02-13T15:03:23.691Z,97
2023-02-13T15:04:40.745Z,96
2023-02-13T15:05:52.839Z,101
2023-02-13T15:07:04.917Z,94
2023-02-13T15:08:11.710Z,102
2023-02-13T15:09:20.207Z,90
2023-02-13T15:10:30.947Z,95
2023-02-13T15:11:43.651Z,87
2023-02-13T15:12:50.571Z,89
2023-02-13T15:14:00.146Z,90
2023-02-13T15:15:17.173Z,91
2023-02-13T15:16:28.026Z,88
2023-02-13T15:17:34.977Z,89
2023-02-13T15:18:44.501Z,98
2023-02-13T15:19:52.236Z,97
2023-02-13T15:20:59.383Z,113
2023-02-13T15:22:05.930Z,101
2023-02-13T15:23:12.812Z,108
2023-02-13T15:24:24.849Z,117
2023-02-13T15:25:34.474Z,124
2023-02-13T15:26:44.023Z,113
2023-02-13T15:27:57.075Z,119
2023-02-13T15:29:05.788Z,134
2023-02-13T15:30:18.599Z,124
2023-02-13T15:31:28.407Z,125
2023-02-13T15:32:35.263Z,127
2023-02-13T15:33:43.877Z,133
2023-02-13T15:34:53.351Z,134
2023-02-13T15:36:00.239Z,130
2023-02-13T15:37:07.232Z,124
2023-02-13T15:38:14.204Z,118
2023-02-13T15:39:31.257Z,119
2023-02-13T15:40:38.099Z,115
2023-02-13T15:41:45.863Z,109
2023-02-13T15:42:52.858Z,107
2023-02-13T15:43:59.712Z,108
2023-02-13T15:45:07.335Z,102
2023-02-13T15:46:14.414Z,95
2023-02-13T15:47:28.930Z,99
2023-02-13T15:48:36.070Z,97
2023-02-13T15:49:43.096Z,90
2023-02-13T15:50:50.053Z,97
2023-02-13T15:51:56.910Z,93
2023-02-13T15:53:09.553Z,86
2023-02-13T15:54:16.466Z,82
2023-02-13T15:55:29.425Z,90
2023-02-13T15:56:39.689Z,85
2023-02-13T15:57:46.603Z,86
2023-02-13T15:58:53.442Z,82
2023-02-13T16:00:00.383Z,78
2023-02-13T16:01:08.223Z,80
2023-02-13T16:02:15.330Z,81
2023-02-13T16:03:22.326Z,77
2023-02-13T16:04:29.176Z,86
2023-02-13T16:05:40.308Z,83
2023-02-13T16:06:43.726Z,79
2023-02-13T16:07:50.664Z,85
2023-02-13T16:08:57.611Z,80
2023-02-13T16:10:04.531Z,87
2023-02-13T16:11:19.340Z,87
2023-02-13T16:12:34.181Z,85
2023-02-13T16:13:41.064Z,92
2023-02-13T16:14:55.513Z,88
2023-02-13T16:16:02.462Z,84
2023-02-13T16:17:09.378Z,82
2023-02-13T16:18:20.052Z,77
2023-02-13T16:19:27.154Z,83